createdAt,value
2017-07-03T00:01:48.219Z,3.12
2017-07-03T00:04:15.692Z,2.40
2017-07-03T00:06:43.185Z,2.60
2017-07-03T00:09:11.461Z,2.95
2017-07-03T00:11:38.963Z,2.45
2017-07-03T00:14:06.463Z,2.42
2017-07-03T00:16:33.953Z,3.05
2017-07-03T00:19:02.216Z,2.33
2017-07-03T00:21:30.461Z,2.53
2017-07-03T00:23:57.960Z,2.47
2017-07-03T00:26:26.200Z,2.33
2017-07-03T00:28:53.692Z,2.60
2017-07-03T00:31:21.938Z,2.40
2017-07-03T00:33:49.424Z,2.55
2017-07-03T00:36:17.684Z,2.10
2017-07-03T00:38:45.181Z,2.45
2017-07-03T00:41:12.672Z,2.53
2017-07-03T00:43:40.158Z,2.25
2017-07-03T00:46:07.666Z,1.73
2017-07-03T00:48:35.147Z,2.67
2017-07-03T00:51:02.621Z,2.55
2017-07-03T00:53:30.112Z,2.05
2017-07-03T00:55:58.355Z,2.12
2017-07-03T00:58:26.658Z,2.45
2017-07-03T01:00:54.983Z,2.45
2017-07-03T01:03:22.488Z,2.05
2017-07-03T01:05:49.963Z,2.45
2017-07-03T01:08:18.209Z,3.05
2017-07-03T01:10:45.701Z,2.65
2017-07-03T01:13:13.197Z,2.60
2017-07-03T01:15:40.693Z,2.62
2017-07-03T01:18:08.177Z,2.20
2017-07-03T01:20:35.684Z,2.80
2017-07-03T01:23:03.156Z,2.87
2017-07-03T01:25:30.645Z,2.78
2017-07-03T01:27:58.920Z,3.17
2017-07-03T01:30:27.236Z,3.10
2017-07-03T01:32:54.757Z,3.60
2017-07-03T01:35:23.013Z,3.55
2017-07-03T01:37:50.493Z,3.87
2017-07-03T01:40:18.808Z,3.15
2017-07-03T01:42:46.326Z,3.50
2017-07-03T01:45:14.597Z,3.50
2017-07-03T01:47:42.851Z,3.22
2017-07-03T01:50:10.344Z,3.20
2017-07-03T01:52:38.614Z,2.60
2017-07-03T01:55:06.869Z,3.33
2017-07-03T01:57:34.357Z,3.08
2017-07-03T02:00:01.870Z,2.95
2017-07-03T02:02:29.343Z,3.25
2017-07-03T02:04:56.849Z,2.50
2017-07-03T02:07:24.347Z,2.58
2017-07-03T02:09:51.850Z,3.27
2017-07-03T02:12:20.085Z,2.97
2017-07-03T02:14:47.574Z,2.87
2017-07-03T02:17:15.830Z,3.20
2017-07-03T02:19:43.350Z,2.97
2017-07-03T02:22:10.844Z,3.17
2017-07-03T02:24:38.326Z,2.90
2017-07-03T02:27:06.634Z,3.45
2017-07-03T02:29:34.101Z,2.75
2017-07-03T02:32:01.620Z,2.70
2017-07-03T02:34:29.891Z,2.55
2017-07-03T02:36:58.144Z,3.15
2017-07-03T02:39:25.661Z,2.55
2017-07-03T02:41:53.161Z,2.53
2017-07-03T02:44:20.668Z,2.62
2017-07-03T02:46:48.149Z,3.35
2017-07-03T02:49:15.665Z,2.92
2017-07-03T02:51:43.178Z,2.85
2017-07-03T02:54:10.681Z,3.30
2017-07-03T02:56:38.957Z,2.75
2017-07-03T02:59:07.208Z,2.70
2017-07-03T03:01:34.708Z,2.83
2017-07-03T03:04:02.195Z,3.20
2017-07-03T03:06:29.685Z,2.30
2017-07-03T03:08:57.198Z,2.87
2017-07-03T03:11:24.703Z,3.47
2017-07-03T03:13:52.181Z,2.70
2017-07-03T03:16:20.444Z,3.10
2017-07-03T03:18:47.927Z,2.70
2017-07-03T03:21:16.181Z,2.90
2017-07-03T03:23:43.655Z,3.40
2017-07-03T03:26:11.916Z,3.28
2017-07-03T03:28:39.398Z,2.83
2017-07-03T03:31:07.659Z,2.80
2017-07-03T03:33:35.913Z,3.42
2017-07-03T03:36:03.431Z,4.40
2017-07-03T03:38:30.916Z,3.20
2017-07-03T03:40:58.449Z,3.80
2017-07-03T03:43:25.967Z,3.25
2017-07-03T03:45:53.444Z,3.30
2017-07-03T03:48:21.724Z,3.53
2017-07-03T03:50:49.215Z,2.75
2017-07-03T03:53:16.693Z,3.42
2017-07-03T03:55:44.180Z,3.62
2017-07-03T03:58:12.437Z,2.87
2017-07-03T04:00:39.945Z,3.37
2017-07-03T04:03:07.430Z,3.60
2017-07-03T04:05:34.905Z,2.83
2017-07-03T04:08:02.430Z,2.72
2017-07-03T04:10:29.917Z,3.30
2017-07-03T04:12:57.414Z,2.72
2017-07-03T04:15:25.679Z,3.25
2017-07-03T04:17:53.957Z,3.00
2017-07-03T04:20:22.205Z,3.10
2017-07-03T04:22:49.689Z,2.90
2017-07-03T04:25:17.962Z,3.35
2017-07-03T04:27:45.441Z,2.90
2017-07-03T04:30:12.924Z,3.00
2017-07-03T04:32:40.427Z,2.95
2017-07-03T04:35:07.900Z,3.12
2017-07-03T04:37:36.169Z,2.90
2017-07-03T04:40:04.421Z,3.15
2017-07-03T04:42:31.922Z,3.12
2017-07-03T04:45:00.160Z,3.03
2017-07-03T04:47:27.640Z,3.20
2017-07-03T04:49:55.906Z,2.92
2017-07-03T04:52:24.234Z,3.65
2017-07-03T04:54:51.722Z,3.95
2017-07-03T04:57:19.223Z,2.87
2017-07-03T04:59:47.463Z,2.60
2017-07-03T05:02:15.044Z,2.85
2017-07-03T05:04:43.292Z,3.05
2017-07-03T05:07:10.796Z,3.25
2017-07-03T05:09:39.055Z,3.47
2017-07-03T05:12:06.667Z,2.80
2017-07-03T05:14:34.155Z,2.83
2017-07-03T05:17:01.656Z,3.05
2017-07-03T05:19:29.153Z,4.20
2017-07-03T05:21:56.637Z,2.65
2017-07-03T05:24:24.142Z,2.80
2017-07-03T05:26:51.636Z,3.15
2017-07-03T05:29:19.118Z,2.80
2017-07-03T05:31:46.622Z,2.90
2017-07-03T05:34:14.095Z,2.47
2017-07-03T05:36:41.614Z,2.35
2017-07-03T05:39:09.859Z,2.75
2017-07-03T05:41:37.373Z,2.75
2017-07-03T05:44:10.470Z,2.75
2017-07-03T05:46:37.960Z,2.60
2017-07-03T05:49:05.442Z,3.25
2017-07-03T05:51:33.728Z,2.30
2017-07-03T05:54:01.970Z,3.30
2017-07-03T05:56:29.445Z,2.62
2017-07-03T05:58:57.013Z,2.20
2017-07-03T06:01:25.265Z,2.60
2017-07-03T06:03:52.758Z,2.30
2017-07-03T06:06:21.002Z,2.67
2017-07-03T06:08:48.516Z,3.10
2017-07-03T06:11:16.008Z,2.05
2017-07-03T06:13:43.494Z,2.83
2017-07-03T06:16:11.765Z,2.85
2017-07-03T06:18:39.241Z,3.37
2017-07-03T06:21:07.512Z,2.65
2017-07-03T06:23:35.778Z,2.40
2017-07-03T06:26:03.272Z,2.57
2017-07-03T06:28:30.753Z,2.00
2017-07-03T06:30:58.261Z,2.55
2017-07-03T06:33:26.526Z,2.10
2017-07-03T06:35:54.017Z,2.00
2017-07-03T06:38:21.520Z,2.60
2017-07-03T06:40:49.003Z,2.83
2017-07-03T06:43:16.493Z,2.37
2017-07-03T06:45:43.978Z,2.93
2017-07-03T06:48:11.541Z,2.03
2017-07-03T06:50:39.030Z,2.50
2017-07-03T06:53:06.524Z,2.40
2017-07-03T06:55:34.784Z,2.27
2017-07-03T06:58:03.034Z,1.57
2017-07-03T07:00:30.536Z,2.13
2017-07-03T07:02:58.778Z,2.47
2017-07-03T07:05:26.253Z,1.97
2017-07-03T07:07:53.732Z,2.03
2017-07-03T07:10:21.221Z,1.90
2017-07-03T07:12:48.723Z,1.70
2017-07-03T07:15:16.214Z,1.50
2017-07-03T07:17:43.747Z,1.53
2017-07-03T07:20:11.996Z,1.30
2017-07-03T07:22:39.476Z,1.60
2017-07-03T07:25:06.970Z,1.70
2017-07-03T07:27:34.452Z,1.87
2017-07-03T07:30:01.970Z,2.27
2017-07-03T07:32:30.212Z,1.60
2017-07-03T07:34:57.717Z,1.60
2017-07-03T07:37:25.181Z,1.50
2017-07-03T07:39:52.660Z,1.90
2017-07-03T07:42:20.161Z,1.83
2017-07-03T07:44:47.640Z,1.30
2017-07-03T07:47:15.904Z,1.70
2017-07-03T07:49:44.150Z,1.57
2017-07-03T07:52:11.642Z,1.63
2017-07-03T07:54:39.920Z,1.50
2017-07-03T07:57:09.904Z,2.13
2017-07-03T07:59:38.988Z,1.70
2017-07-03T08:02:07.214Z,1.70
2017-07-03T08:04:35.477Z,1.70
2017-07-03T08:07:03.733Z,1.60
2017-07-03T08:09:31.218Z,1.50
2017-07-03T08:11:59.479Z,1.40
2017-07-03T08:14:26.980Z,1.40
2017-07-03T08:16:54.476Z,1.47
2017-07-03T08:19:22.004Z,1.50
2017-07-03T08:21:49.502Z,1.43
2017-07-03T08:24:16.998Z,1.73
2017-07-03T08:26:44.485Z,1.50
2017-07-03T08:29:12.038Z,1.30
2017-07-03T08:31:39.513Z,1.30
2017-07-03T08:34:07.006Z,1.53
2017-07-03T08:36:34.510Z,1.87
2017-07-03T08:39:02.015Z,1.77
2017-07-03T08:41:29.506Z,1.30
2017-07-03T08:43:57.005Z,1.60
2017-07-03T08:46:24.488Z,1.70
2017-07-03T08:48:51.981Z,1.40
2017-07-03T08:51:20.244Z,1.50
2017-07-03T08:53:48.509Z,1.43
2017-07-03T08:56:15.984Z,1.40
2017-07-03T08:58:44.241Z,1.40
2017-07-03T09:01:11.751Z,1.50
2017-07-03T09:03:39.222Z,1.47
2017-07-03T09:06:06.872Z,1.40
2017-07-03T09:08:34.348Z,1.20
2017-07-03T09:11:01.829Z,1.30
2017-07-03T09:13:29.326Z,1.40
2017-07-03T09:15:56.803Z,1.47
2017-07-03T09:18:24.643Z,1.87
2017-07-03T09:20:53.194Z,1.30
2017-07-03T09:23:20.688Z,1.10
2017-07-03T09:25:48.168Z,1.40
2017-07-03T09:28:15.642Z,1.30
2017-07-03T09:30:43.149Z,1.30
2017-07-03T09:33:11.386Z,1.30
2017-07-03T09:35:38.885Z,1.20
2017-07-03T09:38:07.139Z,1.40
2017-07-03T09:40:34.629Z,1.13
2017-07-03T09:43:02.870Z,1.23
2017-07-03T09:45:30.365Z,1.30
2017-07-03T09:47:57.842Z,1.27
2017-07-03T09:50:25.308Z,1.27
2017-07-03T09:52:52.805Z,1.10
2017-07-03T09:55:20.320Z,1.17
2017-07-03T09:57:47.815Z,1.07
2017-07-03T10:00:15.288Z,1.20
2017-07-03T10:02:42.796Z,1.20
2017-07-03T10:05:10.312Z,1.27
2017-07-03T10:07:37.789Z,1.10
2017-07-03T10:10:06.065Z,1.20
2017-07-03T10:12:33.586Z,1.20
2017-07-03T10:15:01.078Z,1.00
2017-07-03T10:17:29.316Z,1.17
2017-07-03T10:19:56.805Z,1.23
2017-07-03T10:22:25.064Z,1.20
2017-07-03T10:24:52.578Z,1.10
2017-07-03T10:27:20.102Z,1.30
2017-07-03T10:29:48.337Z,1.47
2017-07-03T10:32:15.821Z,1.07
2017-07-03T10:34:43.321Z,1.40
2017-07-03T10:37:10.788Z,1.40
2017-07-03T10:39:38.276Z,1.07
2017-07-03T10:42:05.753Z,1.20
2017-07-03T10:44:34.025Z,1.30
2017-07-03T10:47:01.503Z,1.00
2017-07-03T10:49:29.734Z,1.20
2017-07-03T10:51:57.240Z,1.30
2017-07-03T10:54:24.749Z,1.17
2017-07-03T10:56:52.250Z,1.10
2017-07-03T10:59:20.489Z,1.10
2017-07-03T11:01:47.985Z,1.10
2017-07-03T11:04:16.276Z,1.00
2017-07-03T11:06:43.752Z,1.00
2017-07-03T11:09:11.265Z,1.00
2017-07-03T11:11:38.796Z,0.90
2017-07-03T11:14:06.291Z,0.83
2017-07-03T11:16:33.760Z,0.90
2017-07-03T11:19:02.071Z,0.80
2017-07-03T11:21:29.538Z,0.90
2017-07-03T11:23:57.212Z,0.83
2017-07-03T11:26:24.767Z,0.97
2017-07-03T11:28:52.241Z,1.53
2017-07-03T11:31:19.745Z,0.90
2017-07-03T11:33:47.226Z,1.00
2017-07-03T11:36:14.698Z,0.80
2017-07-03T11:38:42.196Z,0.90
2017-07-03T11:41:09.663Z,0.87
2017-07-03T11:43:37.143Z,0.80
2017-07-03T11:46:04.649Z,0.80
2017-07-03T11:48:32.132Z,0.90
2017-07-03T11:50:59.620Z,0.73
2017-07-03T11:53:27.094Z,0.87
2017-07-03T11:55:54.589Z,0.90
2017-07-03T11:58:22.816Z,1.00
2017-07-03T12:00:50.312Z,0.83
2017-07-03T12:03:17.784Z,0.90
2017-07-03T12:05:46.031Z,0.70
2017-07-03T12:08:13.518Z,0.77
2017-07-03T12:10:41.764Z,0.93
2017-07-03T12:13:09.265Z,0.83
2017-07-03T12:15:37.910Z,0.90
2017-07-03T12:18:05.396Z,1.07
2017-07-03T12:20:33.668Z,1.00
2017-07-03T12:23:01.913Z,1.00
2017-07-03T12:25:29.423Z,0.80
2017-07-03T12:27:56.904Z,1.00
2017-07-03T12:30:24.404Z,1.07
2017-07-03T12:32:51.884Z,1.00
2017-07-03T12:35:20.135Z,0.90
2017-07-03T12:37:47.638Z,1.10
2017-07-03T12:40:15.110Z,1.10
2017-07-03T12:42:42.619Z,0.90
2017-07-03T12:45:10.110Z,1.00
2017-07-03T12:47:37.597Z,1.23
2017-07-03T12:50:05.059Z,1.03
2017-07-03T12:52:32.555Z,1.07
2017-07-03T12:55:00.057Z,1.13
2017-07-03T12:57:27.541Z,1.07
2017-07-03T12:59:55.031Z,1.10
2017-07-03T13:02:23.281Z,1.00
2017-07-03T13:04:50.753Z,1.30
2017-07-03T13:07:18.299Z,1.10
2017-07-03T13:09:45.770Z,1.00
2017-07-03T13:12:13.256Z,1.10
2017-07-03T13:14:40.761Z,1.20
2017-07-03T13:17:08.272Z,1.20
2017-07-03T13:19:36.513Z,1.10
2017-07-03T13:22:03.988Z,0.93
2017-07-03T13:24:32.254Z,1.03
2017-07-03T13:26:59.732Z,0.90
2017-07-03T13:29:27.997Z,1.23
2017-07-03T13:31:55.477Z,1.40
2017-07-03T13:34:23.730Z,1.33
2017-07-03T13:36:51.222Z,0.90
2017-07-03T13:39:18.724Z,0.90
2017-07-03T13:41:46.216Z,0.87
2017-07-03T13:44:14.450Z,1.27
2017-07-03T13:46:41.945Z,0.90
2017-07-03T13:49:10.198Z,1.10
2017-07-03T13:51:37.701Z,1.10
2017-07-03T13:54:05.174Z,1.10
2017-07-03T13:56:32.660Z,0.90
2017-07-03T13:59:00.140Z,0.90
2017-07-03T14:01:27.601Z,1.00
2017-07-03T14:03:55.099Z,0.90
2017-07-03T14:06:22.589Z,1.00
2017-07-03T14:08:50.136Z,1.00
2017-07-03T14:11:17.626Z,1.00
2017-07-03T14:13:45.092Z,1.20
2017-07-03T14:16:12.616Z,1.00
2017-07-03T14:18:40.099Z,0.97
2017-07-03T14:21:07.587Z,1.07
2017-07-03T14:23:35.825Z,0.90
2017-07-03T14:26:03.333Z,0.90
2017-07-03T14:28:30.815Z,1.00
2017-07-03T14:30:58.290Z,0.80
2017-07-03T14:33:25.786Z,1.00
2017-07-03T14:35:54.045Z,0.87
2017-07-03T14:38:21.564Z,1.20
2017-07-03T14:40:49.049Z,1.10
2017-07-03T14:43:16.532Z,1.00
2017-07-03T14:45:44.015Z,1.10
2017-07-03T14:48:11.496Z,1.00
2017-07-03T14:50:39.014Z,1.10
2017-07-03T14:53:07.280Z,0.87
2017-07-03T14:55:34.760Z,1.00
2017-07-03T14:58:03.026Z,0.90
2017-07-03T15:00:31.270Z,1.13
2017-07-03T15:02:58.755Z,1.30
2017-07-03T15:05:27.023Z,1.10
2017-07-03T15:07:54.496Z,1.00
2017-07-03T15:10:22.749Z,1.17
2017-07-03T15:12:50.229Z,1.00
2017-07-03T15:15:18.484Z,1.30
2017-07-03T15:17:45.970Z,1.23
2017-07-03T15:20:14.229Z,1.07
2017-07-03T15:22:41.743Z,0.87
2017-07-03T15:25:09.217Z,0.97
2017-07-03T15:27:36.716Z,1.10
2017-07-03T15:30:04.965Z,0.90
2017-07-03T15:32:32.453Z,1.03
2017-07-03T15:35:00.689Z,1.00
2017-07-03T15:37:28.197Z,1.20
2017-07-03T15:39:55.669Z,1.07
2017-07-03T15:42:23.154Z,1.27
2017-07-03T15:44:50.657Z,1.53
2017-07-03T15:47:18.915Z,1.20
2017-07-03T15:49:46.415Z,1.10
2017-07-03T15:52:13.902Z,1.10
2017-07-03T15:54:41.384Z,1.00
2017-07-03T15:57:08.908Z,1.20
2017-07-03T15:59:36.381Z,1.10
2017-07-03T16:02:05.572Z,2.10
2017-07-03T16:04:34.281Z,1.30
2017-07-03T16:07:01.764Z,1.23
2017-07-03T16:09:30.004Z,1.30
2017-07-03T16:11:57.514Z,1.20
2017-07-03T16:14:25.773Z,1.20
2017-07-03T16:16:53.312Z,1.03
2017-07-03T16:19:20.816Z,1.00
2017-07-03T16:21:48.297Z,1.30
2017-07-03T16:24:15.776Z,1.37
2017-07-03T16:26:43.287Z,1.10
2017-07-03T16:29:10.779Z,1.10
2017-07-03T16:31:38.262Z,1.20
2017-07-03T16:34:05.761Z,1.20
2017-07-03T16:36:34.013Z,1.50
2017-07-03T16:39:02.283Z,1.30
2017-07-03T16:41:29.762Z,1.10
2017-07-03T16:43:58.032Z,1.17
2017-07-03T16:46:26.285Z,1.30
2017-07-03T16:48:53.784Z,1.20
2017-07-03T16:51:22.047Z,1.13
2017-07-03T16:53:50.293Z,1.30
2017-07-03T16:56:18.354Z,1.40
2017-07-03T16:58:45.858Z,1.30
2017-07-03T17:01:14.128Z,1.90
2017-07-03T17:03:42.389Z,1.47
2017-07-03T17:06:09.891Z,1.50
2017-07-03T17:08:37.376Z,1.20
2017-07-03T17:11:04.842Z,1.50
2017-07-03T17:13:32.347Z,1.07
2017-07-03T17:16:00.578Z,1.20
2017-07-03T17:18:28.061Z,1.27
2017-07-03T17:20:55.601Z,1.37
2017-07-03T17:23:23.078Z,1.50
2017-07-03T17:25:50.585Z,1.53
2017-07-03T17:28:18.057Z,1.20
2017-07-03T17:30:45.558Z,1.40
2017-07-03T17:33:13.063Z,1.30
2017-07-03T17:35:40.536Z,1.73
2017-07-03T17:38:08.049Z,1.30
2017-07-03T17:40:36.304Z,1.27
2017-07-03T17:43:03.781Z,1.50
2017-07-03T17:45:32.056Z,1.30
2017-07-03T17:48:00.317Z,1.33
2017-07-03T17:50:27.810Z,1.60
2017-07-03T17:52:55.386Z,2.40
2017-07-03T17:55:22.893Z,1.40
2017-07-03T17:57:50.367Z,1.30
2017-07-03T18:00:18.612Z,1.53
2017-07-03T18:02:46.124Z,1.40
2017-07-03T18:05:13.612Z,1.47
2017-07-03T18:07:41.119Z,1.40
2017-07-03T18:10:09.367Z,1.70
2017-07-03T18:12:36.858Z,1.47
2017-07-03T18:15:05.149Z,1.60
2017-07-03T18:17:32.657Z,1.83
2017-07-03T18:20:00.157Z,1.53
2017-07-03T18:22:28.414Z,1.70
2017-07-03T18:24:56.677Z,1.63
2017-07-03T18:27:24.175Z,1.50
2017-07-03T18:29:51.660Z,1.60
2017-07-03T18:32:19.177Z,1.70
2017-07-03T18:34:47.431Z,1.80
2017-07-03T18:37:14.937Z,1.70
2017-07-03T18:39:42.423Z,1.53
2017-07-03T18:42:09.928Z,1.80
2017-07-03T18:44:38.224Z,1.70
2017-07-03T18:47:05.726Z,1.80
2017-07-03T18:49:33.228Z,1.77
2017-07-03T18:52:00.719Z,1.50
2017-07-03T18:54:28.228Z,2.13
2017-07-03T18:56:56.549Z,1.80
2017-07-03T18:59:24.049Z,1.67
2017-07-03T19:01:51.595Z,1.80
2017-07-03T19:04:19.102Z,1.90
2017-07-03T19:06:46.597Z,1.83
2017-07-03T19:09:14.096Z,1.60
2017-07-03T19:11:42.408Z,1.77
2017-07-03T19:14:09.921Z,2.10
2017-07-03T19:16:37.403Z,2.33
2017-07-03T19:19:05.681Z,1.97
2017-07-03T19:21:33.943Z,1.93
2017-07-03T19:24:01.444Z,1.80
2017-07-03T19:26:28.930Z,1.90
2017-07-03T19:28:56.427Z,1.60
2017-07-03T19:31:23.900Z,1.90
2017-07-03T19:33:51.446Z,1.90
2017-07-03T19:36:19.688Z,1.70
2017-07-03T19:38:47.194Z,2.17
2017-07-03T19:41:14.727Z,1.73
2017-07-03T19:43:43.230Z,1.83
2017-07-03T19:46:10.775Z,1.80
2017-07-03T19:48:39.030Z,2.10
2017-07-03T19:51:06.542Z,1.60
2017-07-03T19:53:34.038Z,1.67
2017-07-03T19:56:01.579Z,2.00
2017-07-03T19:58:29.069Z,2.00
2017-07-03T20:00:56.587Z,1.90
2017-07-03T20:03:24.121Z,1.70
2017-07-03T20:05:51.608Z,2.20
2017-07-03T20:08:19.163Z,1.73
2017-07-03T20:10:46.689Z,1.80
2017-07-03T20:13:14.937Z,2.00
2017-07-03T20:15:42.561Z,2.10
2017-07-03T20:18:10.041Z,1.80
2017-07-03T20:20:37.580Z,1.63
2017-07-03T20:23:05.073Z,2.30
2017-07-03T20:25:32.588Z,1.93
2017-07-03T20:28:00.103Z,2.00
2017-07-03T20:30:27.584Z,1.97
2017-07-03T20:32:55.175Z,1.80
2017-07-03T20:35:22.696Z,2.20
2017-07-03T20:37:50.981Z,1.50
2017-07-03T20:40:19.288Z,2.30
2017-07-03T20:42:46.784Z,1.97
2017-07-03T20:45:14.301Z,1.97
2017-07-03T20:47:41.774Z,1.90
2017-07-03T20:50:10.226Z,2.10
2017-07-03T20:52:37.724Z,2.17
2017-07-03T20:55:05.213Z,1.90
2017-07-03T20:57:33.469Z,1.70
2017-07-03T21:00:01.016Z,2.30
2017-07-03T21:02:28.530Z,1.57
2017-07-03T21:04:56.012Z,1.80
2017-07-03T21:07:23.497Z,2.37
2017-07-03T21:09:50.988Z,2.97
2017-07-03T21:12:19.229Z,2.20
2017-07-03T21:14:46.745Z,2.00
2017-07-03T21:17:14.227Z,1.77
2017-07-03T21:19:41.735Z,1.77
2017-07-03T21:22:09.981Z,2.07
2017-07-03T21:24:37.467Z,1.80
2017-07-03T21:27:05.742Z,1.70
2017-07-03T21:29:33.996Z,2.33
2017-07-03T21:32:01.470Z,1.77
2017-07-03T21:34:28.980Z,1.87
2017-07-03T21:36:56.463Z,2.00
2017-07-03T21:39:24.897Z,2.07
2017-07-03T21:41:52.478Z,1.80
2017-07-03T21:44:19.981Z,1.70
2017-07-03T21:46:47.482Z,1.93
2017-07-03T21:49:14.957Z,2.10
2017-07-03T21:51:42.469Z,2.30
2017-07-03T21:54:10.714Z,2.10
2017-07-03T21:56:38.195Z,2.40
2017-07-03T21:59:06.462Z,2.07
2017-07-03T22:01:33.954Z,2.50
2017-07-03T22:04:01.453Z,1.83
2017-07-03T22:06:28.952Z,2.20
2017-07-03T22:08:57.237Z,2.37
2017-07-03T22:11:25.473Z,2.33
2017-07-03T22:13:52.951Z,2.00
2017-07-03T22:16:20.446Z,2.27
2017-07-03T22:18:47.924Z,2.27
2017-07-03T22:21:15.434Z,2.47
2017-07-03T22:23:42.975Z,2.60
2017-07-03T22:26:10.480Z,2.10
2017-07-03T22:28:37.955Z,2.80
2017-07-03T22:31:05.482Z,3.00
2017-07-03T22:33:33.735Z,2.90
2017-07-03T22:36:01.357Z,3.00
2017-07-03T22:38:28.834Z,3.47
2017-07-03T22:40:56.318Z,2.80
2017-07-03T22:43:24.590Z,2.75
2017-07-03T22:45:52.070Z,2.40
2017-07-03T22:48:20.333Z,3.22
2017-07-03T22:50:48.572Z,2.15
2017-07-03T22:53:16.050Z,2.72
2017-07-03T22:55:43.557Z,2.50
2017-07-03T22:58:11.057Z,3.03
2017-07-03T23:00:38.562Z,3.00
2017-07-03T23:03:06.085Z,2.62
2017-07-03T23:05:33.577Z,2.92
2017-07-03T23:08:01.065Z,2.47
2017-07-03T23:10:28.568Z,2.30
2017-07-03T23:12:56.049Z,2.67
2017-07-03T23:15:23.534Z,2.95
2017-07-03T23:17:51.041Z,2.70
2017-07-03T23:20:18.555Z,3.15
2017-07-03T23:22:46.056Z,3.00
2017-07-03T23:25:13.537Z,2.97
2017-07-03T23:27:41.797Z,2.97
2017-07-03T23:30:10.053Z,3.15
2017-07-03T23:32:37.556Z,2.90
2017-07-03T23:35:05.044Z,2.65
2017-07-03T23:37:32.569Z,2.70
2017-07-03T23:40:00.076Z,2.90
2017-07-03T23:42:27.581Z,2.42
2017-07-03T23:44:55.826Z,3.05
2017-07-03T23:47:23.320Z,2.45
2017-07-03T23:49:50.811Z,3.05
2017-07-03T23:52:18.328Z,2.80
2017-07-03T23:54:46.603Z,2.80
2017-07-03T23:57:14.850Z,2.72
2017-07-03T23:59:42.381Z,2.55
